Map

Track Data

SID SEASON NUMBER BASIN SUBBASIN NAME ISO_TIME NATURE LAT LON WMO_WIND WMO_PRES WMO_AGENCY TRACK_TYPE DIST2LAND LANDFALL IFLAG USA_AGENCY USA_ATCF_ID USA_LAT USA_LON USA_RECORD USA_STATUS USA_WIND USA_PRES USA_SSHS USA_R34_NE USA_R34_SE USA_R34_SW USA_R34_NW USA_R50_NE USA_R50_SE USA_R50_SW USA_R50_NW USA_R64_NE USA_R64_SE USA_R64_SW USA_R64_NW USA_POCI USA_ROCI USA_RMW USA_EYE TOKYO_LAT TOKYO_LON TOKYO_GRADE TOKYO_WIND TOKYO_PRES TOKYO_R50_DIR TOKYO_R50_LONG TOKYO_R50_SHORT TOKYO_R30_DIR TOKYO_R30_LONG TOKYO_R30_SHORT TOKYO_LAND CMA_LAT CMA_LON CMA_CAT CMA_WIND CMA_PRES HKO_LAT HKO_LON HKO_CAT HKO_WIND HKO_PRES NEWDELHI_LAT NEWDELHI_LON NEWDELHI_GRADE NEWDELHI_WIND NEWDELHI_PRES NEWDELHI_CI NEWDELHI_DP NEWDELHI_POCI REUNION_LAT REUNION_LON REUNION_TYPE REUNION_WIND REUNION_PRES REUNION_TNUM REUNION_CI REUNION_RMW REUNION_R34_NE REUNION_R34_SE REUNION_R34_SW REUNION_R34_NW REUNION_R50_NE REUNION_R50_SE REUNION_R50_SW REUNION_R50_NW REUNION_R64_NE REUNION_R64_SE REUNION_R64_SW REUNION_R64_NW BOM_LAT BOM_LON BOM_TYPE BOM_WIND BOM_PRES BOM_TNUM BOM_CI BOM_RMW BOM_R34_NE BOM_R34_SE BOM_R34_SW BOM_R34_NW BOM_R50_NE BOM_R50_SE BOM_R50_SW BOM_R50_NW BOM_R64_NE BOM_R64_SE BOM_R64_SW BOM_R64_NW BOM_ROCI BOM_POCI BOM_EYE BOM_POS_METHOD BOM_PRES_METHOD NADI_LAT NADI_LON NADI_CAT NADI_WIND NADI_PRES WELLINGTON_LAT WELLINGTON_LON WELLINGTON_WIND WELLINGTON_PRES DS824_LAT DS824_LON DS824_STAGE DS824_WIND DS824_PRES TD9636_LAT TD9636_LON TD9636_STAGE TD9636_WIND TD9636_PRES TD9635_LAT TD9635_LON TD9635_WIND TD9635_PRES TD9635_ROCI NEUMANN_LAT NEUMANN_LON NEUMANN_CLASS NEUMANN_WIND NEUMANN_PRES MLC_LAT MLC_LON MLC_CLASS MLC_WIND MLC_PRES USA_GUST BOM_GUST BOM_GUST_PER REUNION_GUST REUNION_GUST_PER USA_SEAHGT USA_SEARAD_NE USA_SEARAD_SE USA_SEARAD_SW USA_SEARAD_NW STORM_SPEED STORM_DIR
1971029S14121 1971 13 SI WA SHEILASOPHIE 1971-01-29 00:00:00 TS -14.0000 121.000 main 346 346 O________OO___ jtwc_sh SH121971 -14.0000 121.000 20 -1 -14.0000 121.000 TC 20 -14.0000 121.000 1 20 0 0
1971029S14121 1971 13 SI WA SHEILASOPHIE 1971-01-29 01:00:00 TS -14.0000 121.001 1002 bom main 346 346 P_____O__PP___ SH121971 -14.0000 120.972 21 -1 -14.0000 121.200 1002 -14.0000 120.972 TC 21 -14.0000 120.958 1 1 261
1971029S14121 1971 13 SI WA SHEILASOPHIE 1971-01-29 03:00:00 TS -14.0083 120.938 main 352 352 P_____P__PP___ SH121971 -14.0000 120.913 25 -1 -14.0457 121.110 1001 -14.0000 120.913 TC 25 -14.0001 120.873 1 2 260
1971029S14121 1971 13 SI WA SHEILASOPHIE 1971-01-29 06:00:00 TS -14.0280 120.839 main 359 357 O_____P__OP_O_ jtwc_sh SH121971 -14.0000 120.800 30 -1 -14.1159 120.978 1000 -14.0000 120.800 TC 30 -14.0001 120.748 1 -14.1000 121.100 TC 25 1001 2 257
1971029S14121 1971 13 SI WA SHEILASOPHIE 1971-01-29 09:00:00 TS -14.0576 120.728 main 357 357 P_____P__PP_P_ SH121971 -14.0000 120.650 32 -1 -14.1902 120.852 999 -14.0000 120.650 TC 32 -14.0000 120.623 1 -14.1375 121.000 TC 27 1000 2 252
1971029S14121 1971 13 SI WA SHEILASOPHIE 1971-01-29 12:00:00 TS -14.0992 120.617 main 364 364 O_____P__OO_O_ jtwc_sh SH121971 -14.0000 120.500 35 0 -14.2711 120.736 999 -14.0000 120.500 TC 35 -14.0000 120.500 1 -14.2000 120.900 TC 30 999 2 241
1971029S14121 1971 13 SI WA SHEILASOPHIE 1971-01-29 13:00:00 TS -14.1269 120.598 999 bom main 364 356 P_____O__PP_P_ SH121971 -14.0000 120.464 35 0 -14.3000 120.700 999 -14.0000 120.464 TC 35 -14.0000 120.460 1 -14.2302 120.867 TC 30 998 2 229
1971029S14121 1971 13 SI WA SHEILASOPHIE 1971-01-29 15:00:00 TS -14.1674 120.533 main 364 364 P_____P__PP_P_ SH121971 -14.0000 120.400 37 0 -14.3605 120.633 998 -14.0000 120.400 TC 37 -14.0000 120.379 1 -14.3000 120.800 TC 32 998 2 238
1971029S14121 1971 13 SI WA SHEILASOPHIE 1971-01-29 18:00:00 TS -14.2244 120.434 main 371 363 O_____P__OP_O_ jtwc_sh SH121971 -14.0000 120.300 40 0 -14.4514 120.539 997 -14.0000 120.300 TC 40 -13.9999 120.257 1 -14.4000 120.700 TC 35 998 2 246
1971029S14121 1971 13 SI WA SHEILASOPHIE 1971-01-29 21:00:00 TS -14.2589 120.318 main 371 371 P_____P__PP_P_ SH121971 -14.0000 120.158 40 0 -14.5315 120.444 996 -14.0000 120.158 TC 40 -14.0000 120.132 1 -14.4575 120.607 TC 35 997 2 256
1971029S14121 1971 13 SI WA SHEILASOPHIE 1971-01-30 00:00:00 TS -14.2814 120.190 main 379 379 O_____P__OO_O_ jtwc_sh SH121971 -14.0000 120.000 40 0 -14.5884 120.339 996 -14.0000 120.000 TC 40 -14.0000 120.000 2 40 -14.5000 120.500 TC 35 996 3 260
1971029S14121 1971 13 SI WA SHEILASOPHIE 1971-01-30 01:00:00 TS -14.2874 120.145 996 bom main 387 387 P_____O__PP_P_ SH121971 -14.0000 119.950 38 0 -14.6000 120.300 996 -14.0000 119.950 TC 38 -14.0000 119.951 2 38 -14.5219 120.456 TC 35 995 3 265
1971029S14121 1971 13 SI WA SHEILASOPHIE 1971-01-30 03:00:00 TS -14.2936 120.051 main 387 387 P_____P__PP_P_ SH121971 -14.0000 119.850 35 0 -14.6009 120.211 995 -14.0000 119.850 TC 35 -14.0000 119.849 2 35 -14.5650 120.358 TC 37 995 3 269
1971029S14121 1971 13 SI WA SHEILASOPHIE 1971-01-30 06:00:00 TS -14.2903 119.904 main 402 402 O_____P__OP_O_ jtwc_sh SH121971 -14.0000 119.700 30 -1 -14.5770 120.066 995 -14.0000 119.700 TC 30 -14.0000 119.693 2 30 -14.6000 120.200 TC 40 995 3 275
1971029S14121 1971 13 SI WA SHEILASOPHIE 1971-01-30 09:00:00 TS -14.2706 119.754 main 410 410 P_____P__PP_P_ SH121971 -14.0000 119.543 25 -1 -14.5393 119.911 994 -14.0000 119.543 TC 25 -14.0000 119.540 2 25 -14.5575 120.050 TC 40 994 3 278
1971029S14121 1971 13 SI WA SHEILASOPHIE 1971-01-30 12:00:00 TS -14.2511 119.609 main 425 425 O_____P__OO_O_ jtwc_sh SH121971 -14.0000 119.400 20 -1 -14.5066 119.752 994 -14.0000 119.400 TC 20 -14.0000 119.400 1 20 -14.5000 119.900 TC 40 994 3 277
1971029S14121 1971 13 SI WA SHEILASOPHIE 1971-01-30 13:00:00 TS -14.2476 119.566 994 bom main 433 433 P_____O__PP_P_ SH121971 -14.0000 119.361 22 -1 -14.5000 119.700 994 -14.0000 119.361 TC 22 -13.9926 119.365 1 22 -14.4917 119.850 TC 40 993 2 272
1971029S14121 1971 13 SI WA SHEILASOPHIE 1971-01-30 15:00:00 TS -14.2470 119.490 main 441 441 P_____P__PP_P_ SH121971 -14.0000 119.293 27 -1 -14.5109 119.628 993 -14.0000 119.293 TC 27 -13.9755 119.302 1 26 -14.4850 119.750 TC 40 993 2 268
1971029S14121 1971 13 SI WA SHEILASOPHIE 1971-01-30 18:00:00 TS -14.2550 119.380 main 441 441 O_____P__OP_O_ jtwc_sh SH121971 -14.0000 119.200 35 0 -14.5401 119.521 993 -14.0000 119.200 TC 35 -13.9548 119.215 1 32 -14.5000 119.600 TC 40 993 2 264
1971029S14121 1971 13 SI WA SHEILASOPHIE 1971-01-30 21:00:00 TS -14.2694 119.265 main 448 448 P_____P__PP_P_ SH121971 -13.9850 119.115 40 0 -14.5730 119.385 992 -13.9850 119.115 TC 40 -13.9568 119.120 1 38 -14.5500 119.465 TC 42 992 3 260
1971029S14121 1971 13 SI WA SHEILASOPHIE 1971-01-31 00:00:00 TS -14.2994 119.114 main 464 464 O_____P__OO_O_ jtwc_sh SH121971 -14.0000 119.000 45 0 -14.5965 119.186 992 -14.0000 119.000 TC 45 -14.0000 119.000 2 45 -14.6000 119.300 TC 45 992 3 259
1971029S14121 1971 13 SI WA SHEILASOPHIE 1971-01-31 01:00:00 TS -14.3118 119.049 992 bom main 472 472 P_____O__PP_P_ SH121971 -14.0167 118.945 44 0 -14.6000 119.100 992 -14.0167 118.945 TC 44 -14.0323 118.952 2 -14.6031 119.228 TC 45 991 4 258
1971029S14121 1971 13 SI WA SHEILASOPHIE 1971-01-31 03:00:00 TS -14.3432 118.898 990 bom main 480 473 P_____O__PP_P_ SH121971 -14.0700 118.815 42 0 -14.6000 118.900 990 -14.0700 118.815 TC 42 -14.1149 118.845 2 -14.6000 119.065 TC 47 990 5 255
1971029S14121 1971 13 SI WA SHEILASOPHIE 1971-01-31 06:00:00 TS -14.4150 118.657 main 489 489 O_____P__OP_O_ jtwc_sh SH121971 -14.2000 118.600 40 0 -14.6091 118.614 986 -14.2000 118.600 TC 40 -14.2699 118.660 2 -14.6000 118.800 TC 50 988 5 248
1971029S14121 1971 13 SI WA SHEILASOPHIE 1971-01-31 09:00:00 TS -14.5282 118.427 main 508 502 P_____P__PP_P_ SH121971 -14.4074 118.423 37 0 -14.6342 118.344 983 -14.4074 118.423 TC 37 -14.4399 118.445 2 -14.6425 118.550 TC 55 985 5 243
1971029S14121 1971 13 SI WA SHEILASOPHIE 1971-01-31 12:00:00 TS -14.6466 118.181 main 520 514 O_____P__OO_O_ jtwc_sh SH121971 -14.6000 118.200 35 0 -14.6796 118.085 980 -14.6000 118.200 TC 35 -14.6000 118.200 1 -14.7000 118.300 TC 60 982 5 247
1971029S14121 1971 13 SI WA SHEILASOPHIE 1971-01-31 13:00:00 TS -14.6710 118.087 980 bom main 523 523 P_____O__PP_P_ SH121971 -14.6286 118.095 33 -1 -14.7000 118.000 980 -14.6286 118.095 TC 33 -14.6254 118.099 1 -14.7140 118.217 TC 60 981 6 258
1971029S14121 1971 13 SI WA SHEILASOPHIE 1971-01-31 15:00:00 TS -14.7064 117.883 main 541 541 P_____P__PP_P_ SH121971 -14.6576 117.857 30 -1 -14.7131 117.807 978 -14.6576 117.857 TC 30 -14.6660 117.880 1 -14.7425 118.050 TC 62 979 6 259
1971029S14121 1971 13 SI WA SHEILASOPHIE 1971-01-31 18:00:00 TS -14.7697 117.579 main 564 564 O_____P__OP_O_ jtwc_sh SH121971 -14.7000 117.500 25 -1 -14.7492 117.522 975 -14.7000 117.500 TC 25 -14.7255 117.540 1 -14.8000 117.800 TC 65 976 6 253
1971029S14121 1971 13 SI WA SHEILASOPHIE 1971-01-31 21:00:00 TS -14.8759 117.303 main 588 588 P_____P__PP_P_ SH121971 -14.8050 117.198 25 -1 -14.8374 117.263 973 -14.8050 117.198 TC 25 -14.8222 117.230 1 -14.8625 117.535 TC 70 973 6 238
1971029S14121 1971 13 SI WA SHEILASOPHIE 1971-02-01 00:00:00 TS -15.0587 117.094 main 597 597 O_____P__OO_O_ jtwc_sh SH121971 -15.0000 117.000 25 -1 -15.0147 117.054 970 -15.0000 117.000 TC 25 -15.0000 117.000 1 25 -15.0000 117.300 TC 75 971 5 223
1971029S14121 1971 13 SI WA SHEILASOPHIE 1971-02-01 01:00:00 TS -15.1435 117.048 970 bom main 602 581 P_____O__PP_P_ SH121971 -15.0886 116.971 25 -1 -15.1000 117.000 970 -15.0886 116.971 TC 25 -15.0955 116.960 1 25 -15.0719 117.233 TC 75 969 6 200
1971029S14121 1971 13 SI WA SHEILASOPHIE 1971-02-01 03:00:00 TS -15.3494 116.986 main 581 540 P_____P__PP_P_ SH121971 -15.3050 116.962 25 -1 -15.3253 116.910 967 -15.3050 116.962 TC 25 -15.3216 116.913 1 26 -15.2550 117.120 TC 77 967 7 190
1971029S14121 1971 13 SI WA SHEILASOPHIE 1971-02-01 06:00:00 TS -15.7191 116.943 main 540 508 O_____P__OP_O_ jtwc_sh SH121971 -15.7000 117.000 25 -1 -15.7276 116.827 962 -15.7000 117.000 TC 25 -15.7248 116.910 1 27 -15.6000 117.000 TC 80 964 8 185
1971029S14121 1971 13 SI WA SHEILASOPHIE 1971-02-01 08:00:00 TS -15.9878 116.923 960 bom main 508 497 P_____O__PP_P_ SH121971 -15.9951 117.000 26 -1 -16.0000 116.800 960 -15.9951 117.000 TC 26 -16.0171 116.934 1 28 -15.8563 116.940 TC 85 960 8 0
1971029S14121 1971 13 SI WA SHEILASOPHIE 1971-02-01 09:00:00 TS -16.1247 116.917 main 497 454 P_____P__PP_P_ SH121971 -16.1500 117.000 27 -1 -16.1219 116.790 958 -16.1500 117.000 TC 27 -16.1655 116.951 1 28 -15.9925 116.920 TC 87 959 8 182
1971029S14121 1971 13 SI WA SHEILASOPHIE 1971-02-01 12:00:00 TS -16.5301 116.915 main 454 443 O_____P__OO_O_ jtwc_sh SH121971 -16.6000 117.000 30 -1 -16.4804 116.792 951 -16.6000 117.000 TC 30 -16.6000 117.000 1 30 -16.4000 116.900 TC 95 954 8 177
1971029S14121 1971 13 SI WA SHEILASOPHIE 1971-02-01 13:00:00 TS -16.6535 116.917 950 bom main 432 411 P_____O__PP_P_ SH121971 -16.7281 117.000 30 -1 -16.6000 116.800 950 -16.7281 117.000 TC 30 -16.7258 117.000 1 30 -16.5224 116.905 TC 96 952 7 176
1971029S14121 1971 13 SI WA SHEILASOPHIE 1971-02-01 15:00:00 TS -16.8983 116.929 main 411 376 P_____P__PP_P_ SH121971 -16.9650 117.000 30 -1 -16.8689 116.824 948 -16.9650 117.000 TC 30 -16.9725 117.000 1 31 -16.7575 116.935 TC 100 950 7 177
1971029S14121 1971 13 SI WA SHEILASOPHIE 1971-02-01 18:00:00 TS -17.2603 116.958 main 365 333 O_____P__OP_O_ jtwc_sh SH121971 -17.3000 117.000 30 -1 -17.2869 116.882 945 -17.3000 117.000 TC 30 -17.3300 117.000 1 32 -17.1000 117.000 TC 105 946 7 175
1971029S14121 1971 13 SI WA SHEILASOPHIE 1971-02-01 21:00:00 TS -17.6266 116.990 main 333 291 P_____P__PP_P_ SH121971 -17.6575 117.000 32 -1 -17.6830 116.946 943 -17.6575 117.000 TC 32 -17.6725 117.000 1 33 -17.4575 117.057 TC 107 943 7 175
1971029S14121 1971 13 SI WA SHEILASOPHIE 1971-02-02 00:00:00 TS -17.9688 117.015 main 291 280 O_____P__OO_O_ jtwc_sh SH121971 -18.0000 117.000 35 0 -18.0126 116.992 940 -18.0000 117.000 TC 35 -18.0000 117.000 2 35 -17.8000 117.100 TC 110 941 7 0
1971029S14121 1971 13 SI WA SHEILASOPHIE 1971-02-02 01:00:00 TS -18.0729 117.019 940 bom main 280 269 P_____O__PP_P_ SH121971 -18.1057 117.000 35 0 -18.1000 117.000 940 -18.1057 117.000 TC 35 -18.1116 117.000 2 -17.9031 117.103 TC 110 940 6 0
1971029S14121 1971 13 SI WA SHEILASOPHIE 1971-02-02 03:00:00 TS -18.2659 117.022 main 258 258 P_____P__PP_P_ SH121971 -18.3075 117.000 37 0 -18.2242 117.001 938 -18.3075 117.000 TC 37 -18.3306 117.000 2 -18.1000 117.100 TC 112 939 6 175
1971029S14121 1971 13 SI WA SHEILASOPHIE 1971-02-02 04:00:00 TS -18.3625 117.022 938 bom main 246 224 P_____O__PP_P_ SH121971 -18.4054 117.000 38 0 -18.3000 117.000 938 -18.4054 117.000 TC 38 -18.4375 117.000 2 -18.1975 117.098 TC 113 938 6 0
1971029S14121 1971 13 SI WA SHEILASOPHIE 1971-02-02 06:00:00 TS -18.5684 117.024 main 224 202 O_____P__OP_O_ jtwc_sh SH121971 -18.6000 117.000 40 0 -18.5356 116.995 936 -18.6000 117.000 TC 40 -18.6450 117.000 2 -18.4000 117.100 TC 115 937 6 178
1971029S14121 1971 13 SI WA SHEILASOPHIE 1971-02-02 08:00:00 TS -18.7865 117.032 934 bom main 202 191 P_____O__PP_P_ SH121971 -18.8109 117.000 45 0 -18.8000 117.000 934 -18.8109 117.000 TC 45 -18.8425 117.000 2 -18.6309 117.125 TC 116 934 7 0
1971029S14121 1971 13 SI WA SHEILASOPHIE 1971-02-02 09:00:00 TS -18.8911 117.038 main 191 159 P_____P__PP_P_ SH121971 -18.9150 117.000 47 0 -18.9101 117.013 933 -18.9150 117.000 TC 47 -18.9369 117.000 2 -18.7500 117.142 TC 117 934 6 175
1971029S14121 1971 13 SI WA SHEILASOPHIE 1971-02-02 12:00:00 TS -19.1845 117.063 main 159 148 O_____P__OO_O_ jtwc_sh SH121971 -19.2000 117.000 55 0 -19.2069 117.076 930 -19.2000 117.000 TC 55 -19.2000 117.000 2 -19.1000 117.200 TC 120 931 6 175
1971029S14121 1971 13 SI WA SHEILASOPHIE 1971-02-02 13:00:00 TS -19.2692 117.071 930 bom main 148 137 P_____O__PP_P_ SH121971 -19.2781 117.000 56 0 -19.3000 117.100 930 -19.2781 117.000 TC 56 -19.2579 116.993 2 -19.2083 117.217 TC 120 930 5 175
1971029S14121 1971 13 SI WA SHEILASOPHIE 1971-02-02 15:00:00 TS -19.4110 117.086 main 137 116 P_____P__PP_P_ SH121971 -19.4150 117.000 60 0 -19.3915 117.144 929 -19.4150 117.000 TC 60 -19.3556 116.976 2 -19.4150 117.250 TC 120 929 4 174
1971029S14121 1971 13 SI WA SHEILASOPHIE 1971-02-02 18:00:00 TS -19.6030 117.111 main 116 94 O_____P__OP_O_ jtwc_sh SH121971 -19.6000 117.000 65 1 -19.4805 117.210 927 -19.6000 117.000 TC 65 -19.4950 116.956 2 -19.7000 117.300 TC 120 928 4 174
1971029S14121 1971 13 SI WA SHEILASOPHIE 1971-02-02 21:00:00 TS -19.7944 117.131 main 94 67 P_____P__PP_P_ SH121971 -19.7325 116.985 67 1 -19.6723 117.265 926 -19.7325 116.985 TC 67 -19.6869 116.958 2 -19.9275 117.343 TC 122 926 5 173
1971029S14121 1971 13 SI WA SHEILASOPHIE 1971-02-03 00:00:00 TS -20.1079 117.166 main 67 55 O_____P__OO_O_ jtwc_sh SH121971 -20.0000 117.000 70 1 -20.1474 117.297 925 -20.0000 117.000 TC 70 -20.0000 117.000 4 70 -20.2000 117.400 TC 125 925 7 173
1971029S14121 1971 13 SI WA SHEILASOPHIE 1971-02-03 01:00:00 TS -20.2721 117.184 925 bom main 44 22 P_____O__PP_P_ SH121971 -20.1653 117.017 66 1 -20.4000 117.300 925 -20.1653 117.017 TC 66 -20.1711 117.032 4 66 -20.3403 117.435 TC 118 926 11 175
1971029S14121 1971 13 SI WA SHEILASOPHIE 1971-02-03 02:00:00 TS -20.4606 117.205 925 bom main 22 11 P_____O__PP_P_ SH121971 -20.3622 117.040 63 0 -20.7000 117.300 925 4 -20.3622 117.040 TC 63 -20.3621 117.070 4 63 -20.4956 117.475 TC 111 928 11 171
1971029S14121 1971 13 SI WA SHEILASOPHIE 1971-02-03 03:00:00 TS -20.6424 117.243 main 11 0 P_____P__PP_P_ SH121971 -20.5825 117.070 60 0 -20.8886 117.382 927 -20.5825 117.070 TC 60 -20.5695 117.114 4 60 -20.6575 117.515 TC 105 929 11 167
1971029S14121 1971 13 SI WA SHEILASOPHIE 1971-02-03 04:00:00 TS -20.8186 117.289 930 bom main 0 0 P_____O__PP_P_ SH121971 -20.8178 117.107 56 0 -21.0000 117.500 930 -20.8178 117.107 TC 56 -20.7898 117.162 4 56 -20.8178 117.551 TC 98 930 11 168
1971029S14121 1971 13 SI WA SHEILASOPHIE 1971-02-03 06:00:00 TS -21.1723 117.361 main 0 0 O_____P__OP_O_ jtwc_sh SH121971 -21.3000 117.200 50 0 -21.2112 117.582 938 -21.3000 117.200 TC 50 -21.2552 117.268 4 50 -21.1000 117.600 TC 85 934 10 171
1971029S14121 1971 13 SI WA SHEILASOPHIE 1971-02-03 09:00:00 TS -21.6432 117.439 main 0 0 P_____P__PP_P_ SH121971 -21.9950 117.392 40 0 -21.4114 117.529 952 -21.9950 117.392 TC 40 -21.9634 117.439 4 40 -21.2925 117.543 TC 72 947 9 171
1971029S14121 1971 13 SI WA SHEILASOPHIE 1971-02-03 12:00:00 TS -22.0847 117.520 main 0 0 O_____P__OO_O_ jtwc_sh SH121971 -22.6000 117.600 30 -1 -21.6084 117.420 965 -22.6000 117.600 TC 30 -22.6000 117.600 1 30 -21.5000 117.500 TC 60 961 9 170
1971029S14121 1971 13 SI WA SHEILASOPHIE 1971-02-03 13:00:00 TS -22.2233 117.554 970 bom main 0 0 P_____O__PP_P_ SH121971 -22.7509 117.661 30 -1 -21.7000 117.400 970 -22.7509 117.661 TC 30 -22.7581 117.645 1 30 -21.6298 117.524 TC 57 963 9 166
1971029S14121 1971 13 SI WA SHEILASOPHIE 1971-02-03 15:00:00 TS -22.4999 117.637 main 0 0 P_____P__PP_P_ SH121971 -22.9950 117.773 30 -1 -21.9462 117.414 973 -22.9950 117.773 TC 30 -23.0402 117.731 1 30 -21.9475 117.612 TC 52 968 9 164
1971029S14121 1971 13 SI WA SHEILASOPHIE 1971-02-03 18:00:00 TS -22.9610 117.784 main 0 0 O_____P__OP_O_ jtwc_sh SH121971 -23.3000 117.900 30 -1 -22.4514 117.552 978 -23.3000 117.900 TC 30 -23.3973 117.845 1 30 -22.5000 117.800 TC 45 976 10 164
1971029S14121 1971 13 SI WA SHEILASOPHIE 1971-02-03 21:00:00 TS -23.4637 117.930 main 0 0 P_____P__PP_P_ SH121971 -23.6575 117.973 30 -1 -23.0744 117.792 983 -23.6575 117.973 TC 30 -23.7058 117.937 1 30 -23.0550 118.000 TC 40 981 10 167
1971029S14121 1971 13 SI WA SHEILASOPHIE 1971-02-04 00:00:00 TS -23.9330 118.030 main 0 0 O_____P__OO_O_ jtwc_sh SH121971 -24.0000 118.000 30 -1 -23.7641 118.093 988 -24.0000 118.000 TC 30 -24.0000 118.000 1 30 -23.6000 118.200 TC 35 986 10 172
1971029S14121 1971 13 SI WA SHEILASOPHIE 1971-02-04 01:00:00 TS -24.0925 118.023 990 bom main 0 0 P_____O__PP___ SH121971 -24.1031 118.006 30 -1 -24.0000 118.200 990 -24.1031 118.006 TC 30 -24.0945 118.014 1 TC 7 0
1971029S14121 1971 13 SI WA SHEILASOPHIE 1971-02-04 03:00:00 TS -24.2918 118.015 main 0 0 P________PP___ SH121971 -24.3000 118.008 30 -1 -24.3000 118.008 TC 30 -24.2753 118.029 1 TC 6 0
1971029S14121 1971 13 SI WA SHEILASOPHIE 1971-02-04 06:00:00 TS -24.5842 118.010 main 0 0 O________OP___ jtwc_sh SH121971 -24.6000 118.000 30 -1 -24.6000 118.000 TC 30 -24.5525 118.030 1 6 0
1971029S14121 1971 13 SI WA SHEILASOPHIE 1971-02-04 09:00:00 TS -24.9012 118.006 main 0 0 P________PP___ SH121971 -24.9125 118.000 30 -1 -24.9125 118.000 TC 30 -24.8785 118.017 1 7 0
1971029S14121 1971 13 SI WA SHEILASOPHIE 1971-02-04 12:00:00 TS -25.3000 118.000 main 0 0 O________OO___ jtwc_sh SH121971 -25.3000 118.000 30 -1 -25.3000 118.000 TC 30 -25.3000 118.000 1 9 181
1971029S14121 1971 13 SI WA SHEILASOPHIE 1971-02-04 15:00:00 TS -25.8024 117.990 main 0 0 P________PP___ SH121971 -25.7825 118.000 27 -1 -25.7825 118.000 TC 27 -25.8420 117.969 1 11 0
1971029S14121 1971 13 SI WA SHEILASOPHIE 1971-02-04 18:00:00 TS -26.4284 117.981 main 0 0 O________OP___ jtwc_sh SH121971 -26.4000 118.000 25 -1 -26.4000 118.000 TC 25 -26.4852 117.943 1 14 0
1971029S14121 1971 13 SI WA SHEILASOPHIE 1971-02-04 21:00:00 TS -27.1686 117.967 main 0 0 P________PP___ SH121971 -27.1475 117.978 25 -1 -27.1475 117.978 TC 25 -27.2107 117.945 1 16 179
1971029S14121 1971 13 SI WA SHEILASOPHIE 1971-02-05 00:00:00 TS -28.0000 118.000 main 0 0 O________OO___ jtwc_sh SH121971 -28.0000 118.000 25 -1 -28.0000 118.000 TC 25 -28.0000 118.000 1 20 17 176
1971029S14121 1971 13 SI WA SHEILASOPHIE 1971-02-05 03:00:00 TS -28.8810 118.117 main 0 0 P________PP___ SH121971 -28.8925 118.113 25 -1 -28.8925 118.113 TC 25 -28.8580 118.125 1 18 172
1971029S14121 1971 13 SI WA SHEILASOPHIE 1971-02-05 06:00:00 TS -29.7883 118.303 main 0 0 O________OP___ jtwc_sh SH121971 -29.8000 118.300 25 -1 -29.8000 118.300 TC 25 -29.7649 118.309 1 18 169
1971029S14121 1971 13 SI WA SHEILASOPHIE 1971-02-05 09:00:00 TS -30.6747 118.531 main 0 0 P________PP___ SH121971 -30.6799 118.528 25 -1 -30.6799 118.528 TC 25 -30.6643 118.538 1 18 166
1971029S14121 1971 13 SI WA SHEILASOPHIE 1971-02-05 12:00:00 TS -31.5000 118.800 main 0 0 O________OO___ jtwc_sh SH121971 -31.5000 118.800 25 -1 -31.5000 118.800 TC 25 -31.5000 118.800 1 16 163
1971029S14121 1971 13 SI WA SHEILASOPHIE 1971-02-05 15:00:00 TS -32.2400 119.089 main 0 0 P________PP___ SH121971 -32.2449 119.093 22 -1 -32.2449 119.093 TC 22 -32.2301 119.082 1 15 160
1971029S14121 1971 13 SI WA SHEILASOPHIE 1971-02-05 18:00:00 TS -32.8901 119.393 main 0 0 O________OP___ jtwc_sh SH121971 -32.9000 119.400 20 -1 -32.9000 119.400 TC 20 -32.8703 119.378 1 13 157
1971029S14121 1971 13 SI WA SHEILASOPHIE 1971-02-05 21:00:00 TS -33.4652 119.696 main 0 0 P________PP___ SH121971 -33.4726 119.702 20 -1 -33.4726 119.702 TC 20 -33.4504 119.686 1 12 155
1971029S14121 1971 13 SI WA SHEILASOPHIE 1971-02-06 00:00:00 TS -34.0000 120.000 main 11 O________OO___ jtwc_sh SH121971 -34.0000 120.000 20 -1 -34.0000 120.000 TC 20 -34.0000 120.000 1 12 155

About IBTrACS Database

This database is a web-friendly format of International Best Track Archive for Climate Stewardship (IBTrACS), a global best track data archive curated by NOAA dating back to 1842.

Updated: 2021-10-19